Santo Pipo, Argentina
Current Conditions -  °F | °C
As of 6:00 PM on Thursday 20 Nov 2014 (Local Time) from SGEN Reporting Station
Broken Clouds Broken Clouds  
Wind Chill: 30°   Ceiling: 20000
Heat Index: 32°   Visibility: 6mi
Dew Point: 21°   Wind: 3mph
Humidity: 58%   Direction: 90°E
Pressure: 29.74"   Gusts: NA
Location:  27.13°S, 55.42°W
Report Text: SGEN 202100Z 09003KT 9999 SCT030TCU BKN200 30/21 Q1007
Loading
Personal Weather Stations






























Interactive Weather Map New forecast layout! Learn more

10-Day Weather Forecast

Advertisements
Track Severe Weather on mobile